METAR Data
IDs: Format: Raw Decoded Include TAF

Data at: 2147 UTC 02 Aug 2021

KPRG 022135Z AUTO 02004KT 10SM SCT048 25/16 A3011 RMK AO2 T02450161